Hc Nadja Maria — V2AV4 — position and weather

sailwx.info

Track history (hours):
 
Tides and Currents Weather Stations Pressure Air Temp Water Temp Dewpoint Dewpoint Depression Visibility Wind Speed Wind Dir Waves Ship Positions

Hc Nadja Maria

Last reported at 2015-Aug-29 06:33 UTC. Time now 2015-Aug-29 07:28 UTC.
Position N 53°58' E 005°03'.

Length 130 m; draft 4.6 m.

Type: Cargo ship. MMSI: 304204000.

Date/timePositionNaut miles runAvg speedWind from/ knotsBaromVisibWave heightAir tempDewpointWater temp
2015-Aug-29 06:33N 53°58' E 005°03'1413.8
2015-Aug-29 05:31N 53°44' E 004°55'1414.0
2015-Aug-29 04:33N 53°31' E 004°47'1514.8
2015-Aug-29 03:33N 53°18' E 004°36'1515.3
2015-Aug-29 02:33N 53°04' E 004°24'1514.9
2015-Aug-29 01:33N 52°51' E 004°14'1514.5
2015-Aug-29 00:33N 52°39' E 003°60'1413.8
2015-Aug-28 23:33N 52°26' E 003°53'1313.1
2015-Aug-28 22:33N 52°13' E 003°53'1111.0
2015-Aug-28 21:34N 52°02' E 003°52'1413.5
2015-Aug-28 20:33N 51°56' E 004°12'9 8.9
2015-Aug-28 19:33N 51°51' E 004°23'7 6.6
2015-Aug-28 18:33N 51°50' E 004°34'6 6.3
2015-Aug-28 17:33N 51°44' E 004°38'2 2.2
2015-Aug-28 16:32N 51°42' E 004°37'0 0.0
2015-Aug-28 15:32N 51°42' E 004°37'0 0.0
2015-Aug-28 14:32N 51°42' E 004°37'0 0.0
2015-Aug-28 13:32N 51°42' E 004°37'0 0.0
2015-Aug-28 12:32N 51°42' E 004°37'0 0.0
2015-Aug-28 11:23N 51°42' E 004°37'0 0.0
2015-Aug-28 10:32N 51°42' E 004°37'0 0.0
2015-Aug-28 09:29N 51°42' E 004°37'0 0.0
2015-Aug-28 08:32N 51°42' E 004°37'0 0.0
2015-Aug-28 07:32N 51°42' E 004°37'0 0.0
2015-Aug-28 06:32N 51°42' E 004°37'0 0.0
2015-Aug-28 05:32N 51°42' E 004°37'0 0.0
2015-Aug-28 04:26N 51°42' E 004°37'0 0.0
2015-Aug-28 03:29N 51°42' E 004°37'0 0.0
2015-Aug-28 02:32N 51°42' E 004°37'0 0.0
2015-Aug-28 01:32N 51°42' E 004°37'0 0.0
2015-Aug-28 00:29N 51°42' E 004°37'0 0.0
2015-Aug-27 23:32N 51°42' E 004°37'0 0.0
2015-Aug-27 22:32N 51°42' E 004°37'0 0.0
2015-Aug-27 21:32N 51°42' E 004°37'0 0.0
2015-Aug-27 20:32N 51°42' E 004°37'0 0.0
2015-Aug-27 19:32N 51°42' E 004°37'0 0.0
2015-Aug-27 18:26N 51°42' E 004°37'0 0.0
2015-Aug-27 17:32N 51°42' E 004°37'0 0.0
2015-Aug-27 16:29N 51°42' E 004°37'0 0.0
2015-Aug-27 15:32N 51°42' E 004°37'0 0.0
2015-Aug-27 14:32N 51°42' E 004°37'0 0.0
2015-Aug-27 13:29N 51°42' E 004°37'0 0.0
2015-Aug-27 12:32N 51°42' E 004°37'0 0.0
2015-Aug-27 11:32N 51°42' E 004°37'0 0.0
2015-Aug-27 10:29N 51°42' E 004°37'0 0.0
2015-Aug-27 09:11N 51°42' E 004°37'0 0.7
2015-Aug-27 08:33N 51°42' E 004°37'6 6.3
2015-Aug-27 07:33N 51°48' E 004°36'8 7.9
2015-Aug-27 06:33N 51°51' E 004°24'7 7.4
2015-Aug-27 05:33N 51°55' E 004°14'1111.5
2015-Aug-27 04:34N 51°60' E 003°57'10 9.5
2015-Aug-27 03:33N 51°59' E 003°41'10 9.7
2015-Aug-27 02:29N 51°56' E 003°26'20 8.9
2015-Aug-27 00:15N 51°50' E 002°55'26 9.3
2015-Aug-26 21:28N 51°33' E 002°22'1410.1
2015-Aug-26 20:07N 51°22' E 002°11'610.0
2015-Aug-26 19:33N 51°17' E 002°06'1110.8
2015-Aug-26 18:33N 51°10' E 001°53'1212.0
2015-Aug-26 17:34N 51°01' E 001°40'1211.8
2015-Aug-26 16:33N 50°52' E 001°29'1111.5
2015-Aug-26 15:34N 50°41' E 001°22'  
Track history (hours):
 
Tides and Currents Weather Stations Pressure Air Temp Water Temp Dewpoint Dewpoint Depression Visibility Wind Speed Wind Dir Waves Ship Positions

Hc Nadja Maria

Last reported at 2015-Aug-29 06:33 UTC. Time now 2015-Aug-29 07:28 UTC.
Position N 53°58' E 005°03'.

Length 130 m; draft 4.6 m.

Type: Cargo ship. MMSI: 304204000.

Date/timePositionNaut miles runAvg speedWind from/ knotsBaromVisibWave heightAir tempDewpointWater temp
2015-Aug-29 06:33N 53°58' E 005°03'1413.8
2015-Aug-29 05:31N 53°44' E 004°55'1414.0
2015-Aug-29 04:33N 53°31' E 004°47'1514.8
2015-Aug-29 03:33N 53°18' E 004°36'1515.3
2015-Aug-29 02:33N 53°04' E 004°24'1514.9
2015-Aug-29 01:33N 52°51' E 004°14'1514.5
2015-Aug-29 00:33N 52°39' E 003°60'1413.8
2015-Aug-28 23:33N 52°26' E 003°53'1313.1
2015-Aug-28 22:33N 52°13' E 003°53'1111.0
2015-Aug-28 21:34N 52°02' E 003°52'1413.5
2015-Aug-28 20:33N 51°56' E 004°12'9 8.9
2015-Aug-28 19:33N 51°51' E 004°23'7 6.6
2015-Aug-28 18:33N 51°50' E 004°34'6 6.3
2015-Aug-28 17:33N 51°44' E 004°38'2 2.2
2015-Aug-28 16:32N 51°42' E 004°37'0 0.0
2015-Aug-28 15:32N 51°42' E 004°37'0 0.0
2015-Aug-28 14:32N 51°42' E 004°37'0 0.0
2015-Aug-28 13:32N 51°42' E 004°37'0 0.0
2015-Aug-28 12:32N 51°42' E 004°37'0 0.0
2015-Aug-28 11:23N 51°42' E 004°37'0 0.0
2015-Aug-28 10:32N 51°42' E 004°37'0 0.0
2015-Aug-28 09:29N 51°42' E 004°37'0 0.0
2015-Aug-28 08:32N 51°42' E 004°37'0 0.0
2015-Aug-28 07:32N 51°42' E 004°37'0 0.0
2015-Aug-28 06:32N 51°42' E 004°37'0 0.0
2015-Aug-28 05:32N 51°42' E 004°37'0 0.0
2015-Aug-28 04:26N 51°42' E 004°37'0 0.0
2015-Aug-28 03:29N 51°42' E 004°37'0 0.0
2015-Aug-28 02:32N 51°42' E 004°37'0 0.0
2015-Aug-28 01:32N 51°42' E 004°37'0 0.0
2015-Aug-28 00:29N 51°42' E 004°37'0 0.0
2015-Aug-27 23:32N 51°42' E 004°37'0 0.0
2015-Aug-27 22:32N 51°42' E 004°37'0 0.0
2015-Aug-27 21:32N 51°42' E 004°37'0 0.0
2015-Aug-27 20:32N 51°42' E 004°37'0 0.0
2015-Aug-27 19:32N 51°42' E 004°37'0 0.0
2015-Aug-27 18:26N 51°42' E 004°37'0 0.0
2015-Aug-27 17:32N 51°42' E 004°37'0 0.0
2015-Aug-27 16:29N 51°42' E 004°37'0 0.0
2015-Aug-27 15:32N 51°42' E 004°37'0 0.0
2015-Aug-27 14:32N 51°42' E 004°37'0 0.0
2015-Aug-27 13:29N 51°42' E 004°37'0 0.0
2015-Aug-27 12:32N 51°42' E 004°37'0 0.0
2015-Aug-27 11:32N 51°42' E 004°37'0 0.0
2015-Aug-27 10:29N 51°42' E 004°37'0 0.0
2015-Aug-27 09:11N 51°42' E 004°37'0 0.7
2015-Aug-27 08:33N 51°42' E 004°37'6 6.3
2015-Aug-27 07:33N 51°48' E 004°36'8 7.9
2015-Aug-27 06:33N 51°51' E 004°24'7 7.4
2015-Aug-27 05:33N 51°55' E 004°14'1111.5
2015-Aug-27 04:34N 51°60' E 003°57'10 9.5
2015-Aug-27 03:33N 51°59' E 003°41'10 9.7
2015-Aug-27 02:29N 51°56' E 003°26'20 8.9
2015-Aug-27 00:15N 51°50' E 002°55'26 9.3
2015-Aug-26 21:28N 51°33' E 002°22'1410.1
2015-Aug-26 20:07N 51°22' E 002°11'610.0
2015-Aug-26 19:33N 51°17' E 002°06'1110.8
2015-Aug-26 18:33N 51°10' E 001°53'1212.0
2015-Aug-26 17:34N 51°01' E 001°40'1211.8
2015-Aug-26 16:33N 50°52' E 001°29'1111.5
2015-Aug-26 15:34N 50°41' E 001°22'  

Dump ship's entire track history